This is the latest recevied weather packets stored in our database for station/object KG5MMT-15. If no packets are shown the sender has not sent any weather packets the latest 1 day(s).
| Time | Temp. | Humidity | Pressure | Rain* | Wind** | Luminosity | Snow |
|---|---|---|---|---|---|---|---|
| 1778063535 | 6.11° C | 61% | 0 hPa | 0 mm | - | - | - |
| 1778063235 | 6.11° C | 61% | 0 hPa | 0 mm | - | - | - |
| 1778062935 | 6.11° C | 61% | 0 hPa | 0 mm | - | - | - |
| 1778062635 | 6.11° C | 60% | 0 hPa | 0 mm | - | - | - |
| 1778062335 | 6.11° C | 61% | 0 hPa | 0 mm | - | - | - |
| 1778062035 | 6.11° C | 61% | 0 hPa | 0 mm | - | - | - |
| 1778061735 | 6.11° C | 60% | 0 hPa | 0 mm | - | - | - |
| 1778061135 | 6.11° C | 59% | 0 hPa | 0 mm | - | - | - |
| 1778060535 | 6.67° C | 57% | 0 hPa | 0 mm | - | - | - |
| 1778060235 | 7.22° C | 54% | 0 hPa | 0 mm | - | - | - |
| 1778059935 | 6.67° C | 53% | 0 hPa | 0 mm | - | - | - |
| 1778059335 | 7.22° C | 53% | 0 hPa | 0 mm | - | - | - |
| 1778058135 | 7.22° C | 51% | 0 hPa | 0 mm | - | - | - |
| 1778055435 | 7.78° C | 51% | 0 hPa | 0 mm | - | - | - |
| 1778052135 | 8.33° C | 50% | 0 hPa | 0 mm | - | - | - |
| 1778051535 | 8.33° C | 52% | 0 hPa | 0 mm | - | - | - |
| 1778047635 | 7.22° C | 65% | 0 hPa | 0 mm | - | - | - |
| 1778046136 | 7.22° C | 68% | 0 hPa | 0 mm | - | - | - |
| 1778045836 | 7.22° C | 68% | 0 hPa | 0 mm | - | - | - |
| 1778045536 | 7.22° C | 68% | 0 hPa | 0 mm | - | - | - |
| 1778044636 | 8.33° C | 64% | 0 hPa | 0 mm | - | - | - |
| 1778044336 | 8.33° C | 64% | 0 hPa | 0 mm | - | - | - |
| 1778044036 | 8.33° C | 65% | 0 hPa | 0 mm | - | - | - |
| 1778043436 | 8.33° C | 64% | 0 hPa | 0 mm | - | - | - |
| 1778043136 | 8.33° C | 64% | 0 hPa | 0 mm | - | - | - |
* Rain latest hour (hover to see other rain measurements)
** Current wind speed in m/s (hover to see current wind gust speed)